Time;durP1;ratioP1;P1;durP2;ratioP2;P2;SDS_P1;SDS_P2;PMS_P1;PMS_P2;Temp;Humidity;BMP_temperature;BMP_pressure;BME280_temperature;BME280_humidity;BME280_pressure;Samples;Min_cycle;Max_cycle;Signal;HPM_P1;HPM_P2
2022/10/29 00:01:18;;;;;;;5.72;4.75;;;;;;;11.16;50.78;100637.66;5011983;28;20026;-80
2022/10/29 00:03:43;;;;;;;6.45;5.13;;;;;;;11.00;51.04;100605.78;5012094;28;20033;-80
2022/10/29 00:06:10;;;;;;;7.25;5.15;;;;;;;11.70;50.89;100720.28;5011335;28;20502;-80
2022/10/29 00:08:37;;;;;;;6.35;5.50;;;;;;;11.60;50.54;100704.53;5011700;28;20045;-80
2022/10/29 00:11:08;;;;;;;5.53;4.85;;;;;;;11.89;51.43;100751.88;5011844;28;20017;-80
2022/10/29 00:13:34;;;;;;;6.28;5.68;;;;;;;10.87;50.77;100586.88;5011985;28;20022;-80
2022/10/29 00:16:05;;;;;;;7.30;5.65;;;;;;;11.41;51.04;100680.94;5011915;28;20057;-80
2022/10/29 00:18:30;;;;;;;7.03;5.18;;;;;;;11.40;51.03;100684.56;5011857;28;20045;-80
2022/10/29 00:21:00;;;;;;;8.93;5.65;;;;;;;11.47;51.07;100696.19;5010511;28;20190;-79
2022/10/29 00:23:26;;;;;;;6.00;5.40;;;;;;;11.19;51.01;100642.63;5010523;28;20491;-80
2022/10/29 00:25:56;;;;;;;7.45;6.60;;;;;;;10.48;50.80;100539.69;5011685;28;20030;-80
2022/10/29 00:28:21;;;;;;;8.05;5.63;;;;;;;11.71;51.34;100741.28;5011617;28;20220;-80
2022/10/29 00:30:46;;;;;;;8.13;5.28;;;;;;;11.59;51.01;100709.97;5010280;28;20475;-80
2022/10/29 00:33:12;;;;;;;7.47;6.05;;;;;;;10.86;50.94;100582.56;5011668;28;20026;-80
2022/10/29 00:35:37;;;;;;;6.78;6.18;;;;;;;11.11;51.29;100631.97;5011687;28;20026;-80
2022/10/29 00:38:03;;;;;;;10.05;6.80;;;;;;;11.80;51.38;100744.84;5011663;28;20026;-80
2022/10/29 00:40:28;;;;;;;8.77;6.28;;;;;;;11.48;51.55;100689.91;5010259;28;20100;-80
2022/10/29 00:43:10;;;;;;;7.15;6.38;;;;;;;11.46;51.15;100710.38;5010347;28;20029;-80
2022/10/29 00:45:40;;;;;;;10.25;6.53;;;;;;;11.50;51.69;100693.22;5010278;28;20021;-80
2022/10/29 00:48:05;;;;;;;8.13;6.22;;;;;;;11.04;51.17;100618.53;5010414;28;20022;-80
2022/10/29 00:50:31;;;;;;;8.70;5.97;;;;;;;11.18;51.54;100654.19;5011643;28;20014;-80
2022/10/29 00:52:57;;;;;;;6.93;6.22;;;;;;;11.74;51.13;100729.56;5011460;28;20050;-80
2022/10/29 00:55:23;;;;;;;7.90;6.47;;;;;;;11.55;51.57;100692.75;5011657;28;20541;-80
2022/10/29 00:57:53;;;;;;;8.23;5.75;;;;;;;11.18;51.34;100643.59;5010152;28;20057;-80
2022/10/29 01:00:20;;;;;;;8.52;7.07;;;;;;;11.59;51.66;100700.22;5010084;28;20018;-80
2022/10/29 01:02:45;;;;;;;8.93;6.72;;;;;;;11.79;51.59;100732.59;5010291;28;20029;-79
2022/10/29 01:05:14;;;;;;;8.68;6.10;;;;;;;10.95;51.32;100577.19;5011670;28;20536;-80
2022/10/29 01:07:39;;;;;;;8.73;6.55;;;;;;;11.23;51.60;100651.06;5011410;28;20060;-80
2022/10/29 01:10:05;;;;;;;8.60;6.20;;;;;;;11.33;51.79;100668.50;5011401;28;20022;-80
2022/10/29 01:12:52;;;;;;;11.50;6.32;;;;;;;11.67;51.85;100728.53;5011391;28;20048;-80
2022/10/29 01:15:50;;;;;;;8.88;6.15;;;;;;;11.57;52.52;100730.47;5011369;28;20018;-80
2022/10/29 01:18:23;;;;;;;11.05;6.72;;;;;;;11.54;51.97;100722.84;5013489;28;20021;-80
2022/10/29 01:21:07;;;;;;;8.20;6.90;;;;;;;11.49;52.26;100723.28;5014989;28;20026;-80
2022/10/29 01:23:47;;;;;;;10.52;7.00;;;;;;;11.46;52.56;100720.97;5013729;28;20117;-80
2022/10/29 01:26:22;;;;;;;10.07;6.90;;;;;;;11.44;52.30;100720.28;5013709;28;20561;-80
2022/10/29 01:28:59;;;;;;;7.55;6.75;;;;;;;11.43;52.31;100715.97;5014781;28;20053;-80
2022/10/29 01:31:54;;;;;;;8.15;6.60;;;;;;;11.38;53.22;100719.09;5013482;28;20464;-80
2022/10/29 01:34:31;;;;;;;8.68;6.90;;;;;;;10.67;53.36;100618.75;5014731;28;20033;-80
2022/10/29 01:37:30;;;;;;;8.07;7.03;;;;;;;11.28;53.36;100713.06;5015040;28;20121;-80
2022/10/29 01:40:12;;;;;;;8.88;7.30;;;;;;;11.31;53.43;100744.50;5013154;28;20026;-80
2022/10/29 01:42:49;;;;;;;8.45;7.18;;;;;;;11.14;53.23;100681.88;5014537;28;20112;-79
2022/10/29 01:45:22;;;;;;;9.23;7.00;;;;;;;10.50;53.20;100596.66;5014397;28;20029;-79
2022/10/29 01:47:54;;;;;;;8.98;6.35;;;;;;;10.74;53.69;100632.19;5014544;28;20026;-80
2022/10/29 01:50:23;;;;;;;10.20;6.38;;;;;;;10.74;53.14;100640.09;5014601;28;20018;-80
2022/10/29 01:52:50;;;;;;;7.88;7.07;;;;;;;10.75;53.37;100632.03;5014371;28;20551;-80
2022/10/29 01:55:22;;;;;;;14.30;7.47;;;;;;;11.35;53.53;100708.81;5014422;28;20025;-80
2022/10/29 01:57:48;;;;;;;8.75;6.60;;;;;;;11.17;52.83;100675.47;5013789;28;20113;-80
2022/10/29 02:00:16;;;;;;;8.40;6.13;;;;;;;11.17;53.23;100686.06;5014283;28;20610;-80
2022/10/29 02:03:03;;;;;;;9.40;6.78;;;;;;;11.31;53.95;100699.53;5013170;28;20383;-80
2022/10/29 02:05:38;;;;;;;8.77;6.45;;;;;;;11.31;53.87;100701.34;5014276;28;20597;-80
2022/10/29 02:08:18;;;;;;;8.13;7.10;;;;;;;11.30;53.76;100715.56;5014348;28;20042;-80
2022/10/29 02:11:06;;;;;;;10.68;7.50;;;;;;;11.24;53.88;100701.16;5014183;28;20025;-80
2022/10/29 02:13:36;;;;;;;10.75;7.38;;;;;;;10.61;53.69;100605.31;5014009;28;20057;-80
2022/10/29 02:16:05;;;;;;;8.48;7.30;;;;;;;10.72;53.92;100634.13;5012627;28;20021;-80
2022/10/29 02:18:39;;;;;;;9.30;6.97;;;;;;;11.06;54.20;100681.81;5012757;28;20026;-80
2022/10/29 02:21:04;;;;;;;14.52;7.13;;;;;;;11.06;53.51;100695.84;5012706;28;20384;-79
2022/10/29 02:23:30;;;;;;;9.77;7.30;;;;;;;10.44;53.77;100580.59;5013669;28;20028;-79
2022/10/29 02:25:55;;;;;;;8.38;7.25;;;;;;;10.05;53.80;100506.94;5013740;28;20387;-80
2022/10/29 02:28:20;;;;;;;9.10;7.03;;;;;;;10.35;53.31;100549.78;5013295;28;20553;-79
2022/10/29 02:30:46;;;;;;;8.88;7.63;;;;;;;10.54;53.58;100578.69;5011789;28;20018;-80
2022/10/29 02:33:11;;;;;;;10.05;6.85;;;;;;;10.76;53.24;100609.09;5013874;28;20097;-79
2022/10/29 02:35:37;;;;;;;10.75;7.82;;;;;;;10.61;53.16;100566.53;5014023;28;20505;-79
2022/10/29 02:38:02;;;;;;;11.93;7.32;;;;;;;11.49;52.75;100694.22;5013662;28;20106;-80
2022/10/29 02:40:27;;;;;;;8.15;7.32;;;;;;;10.80;53.14;100576.09;5013526;28;20021;-80
2022/10/29 02:42:53;;;;;;;9.98;7.90;;;;;;;11.42;53.58;100688.72;5013380;28;20025;-80
2022/10/29 02:45:18;;;;;;;15.75;8.27;;;;;;;11.61;53.59;100689.47;5013391;28;20101;-80
2022/10/29 02:47:44;;;;;;;13.70;8.90;;;;;;;11.36;53.71;100646.19;5013359;28;20030;-80
2022/10/29 02:50:09;;;;;;;11.35;9.32;;;;;;;11.53;53.77;100669.09;5013338;28;20410;-80
2022/10/29 02:52:35;;;;;;;13.73;8.85;;;;;;;11.72;53.23;100705.91;5013445;28;20026;-79
2022/10/29 02:55:00;;;;;;;14.02;9.98;;;;;;;11.42;53.70;100641.13;5013290;28;20053;-79
2022/10/29 02:57:25;;;;;;;14.80;10.35;;;;;;;11.33;53.71;100626.19;5012075;28;20018;-80
2022/10/29 02:59:51;;;;;;;11.68;9.73;;;;;;;10.87;53.53;100537.50;5012086;28;20022;-79
2022/10/29 03:02:16;;;;;;;13.20;9.27;;;;;;;11.58;53.74;100664.19;5013780;28;20025;-80
2022/10/29 03:04:43;;;;;;;14.35;9.70;;;;;;;10.08;53.78;100419.56;5013278;28;20478;-80
2022/10/29 03:07:09;;;;;;;17.52;10.88;;;;;;;11.36;53.68;100625.88;5013033;28;20511;-80
2022/10/29 03:09:34;;;;;;;15.65;9.98;;;;;;;11.27;53.97;100595.09;5013111;28;20033;-80
2022/10/29 03:12:00;;;;;;;13.82;11.43;;;;;;;11.57;54.54;100662.50;5013054;28;20096;-80
2022/10/29 03:14:25;;;;;;;16.15;11.70;;;;;;;11.40;54.49;100621.94;5012232;28;20480;-80
2022/10/29 03:16:50;;;;;;;18.85;12.70;;;;;;;11.89;54.43;100680.44;5012816;28;20084;-80
2022/10/29 03:19:16;;;;;;;16.58;11.48;;;;;;;11.90;54.35;100678.63;5012795;28;20568;-80
2022/10/29 03:21:41;;;;;;;17.27;10.88;;;;;;;11.40;54.73;100598.13;5012476;28;20022;-80
2022/10/29 03:24:07;;;;;;;20.20;12.10;;;;;;;11.50;54.95;100610.41;5012645;28;20487;-80
2022/10/29 03:26:32;;;;;;;21.52;13.90;;;;;;;11.53;55.25;100595.06;5011369;28;20029;-80
2022/10/29 03:28:57;;;;;;;22.73;14.40;;;;;;;11.46;55.63;100594.03;5012649;28;20105;-80
2022/10/29 03:31:23;;;;;;;20.48;12.93;;;;;;;11.05;55.75;100543.56;5012543;28;20041;-80
2022/10/29 03:33:48;;;;;;;25.35;15.82;;;;;;;11.40;56.70;100566.41;5012581;28;20053;-80
2022/10/29 03:36:14;;;;;;;24.33;14.63;;;;;;;12.22;56.93;100688.50;5011443;28;20030;-80
2022/10/29 03:38:39;;;;;;;28.20;16.25;;;;;;;11.55;57.36;100560.50;5012369;28;20097;-80
2022/10/29 03:41:09;;;;;;;28.67;16.00;;;;;;;11.82;57.59;100618.50;5012075;28;20026;-80
2022/10/29 03:43:38;;;;;;;29.85;17.13;;;;;;;11.99;58.09;100644.06;5012535;28;20024;-80
2022/10/29 03:46:04;;;;;;;29.95;18.70;;;;;;;11.99;58.66;100649.38;5011070;28;20030;-80
2022/10/29 03:48:29;;;;;;;40.75;21.00;;;;;;;11.86;59.28;100686.00;5012217;28;20025;-80
2022/10/29 03:50:56;;;;;;;44.20;22.85;;;;;;;11.99;60.10;100657.31;5010768;28;20029;-80
2022/10/29 03:53:23;;;;;;;46.35;23.48;;;;;;;11.90;60.31;100639.75;5011034;28;20029;-80
2022/10/29 03:55:50;;;;;;;45.58;23.55;;;;;;;11.35;60.59;100536.97;5012263;28;20032;-80
2022/10/29 03:58:16;;;;;;;47.90;24.15;;;;;;;11.20;60.84;100514.75;5010789;28;20084;-80
2022/10/29 04:00:41;;;;;;;53.90;26.00;;;;;;;11.38;61.19;100541.09;5012031;28;20061;-80
2022/10/29 04:03:06;;;;;;;53.45;25.85;;;;;;;10.25;61.35;100356.38;5012026;28;20079;-80
2022/10/29 04:05:32;;;;;;;56.65;27.05;;;;;;;11.80;62.28;100615.19;5011977;28;20514;-80
2022/10/29 04:07:57;;;;;;;68.13;29.45;;;;;;;11.77;62.46;100610.19;5011747;28;20041;-80
2022/10/29 04:10:24;;;;;;;63.28;30.73;;;;;;;11.93;62.38;100647.38;5010587;28;20505;-80
2022/10/29 04:12:50;;;;;;;68.60;30.45;;;;;;;11.95;63.50;100636.63;5012024;28;20022;-80
2022/10/29 04:15:15;;;;;;;66.10;29.58;;;;;;;11.13;63.46;100492.56;5012622;28;20026;-79
2022/10/29 04:17:40;;;;;;;73.13;34.38;;;;;;;11.90;63.74;100623.88;5012387;28;20554;-80
2022/10/29 04:20:06;;;;;;;70.25;31.58;;;;;;;11.20;63.54;100496.25;5011141;28;20026;-80
2022/10/29 04:22:32;;;;;;;83.80;34.80;;;;;;;11.51;64.01;100552.06;5010588;28;20109;-80
2022/10/29 04:24:57;;;;;;;80.20;34.88;;;;;;;11.72;64.27;100599.25;5011974;28;20475;-80
2022/10/29 04:27:23;;;;;;;77.35;32.78;;;;;;;11.51;64.50;100575.03;5011787;28;20040;-80
2022/10/29 04:29:48;;;;;;;73.22;31.40;;;;;;;11.72;65.06;100604.56;5011826;28;20482;-80
2022/10/29 04:32:13;;;;;;;75.95;32.45;;;;;;;11.44;64.80;100557.16;5011665;28;20025;-80
2022/10/29 04:34:39;;;;;;;68.78;30.58;;;;;;;11.49;64.98;100548.75;5011841;28;20057;-80
2022/10/29 04:37:04;;;;;;;74.22;29.60;;;;;;;11.96;65.11;100625.88;5011670;28;20026;-80
2022/10/29 04:39:29;;;;;;;56.95;28.38;;;;;;;11.39;65.17;100535.66;5011698;28;20039;-80
2022/10/29 04:41:55;;;;;;;58.63;27.98;;;;;;;11.80;64.98;100614.38;5011493;28;20089;-80
2022/10/29 04:44:20;;;;;;;52.42;25.33;;;;;;;11.51;65.06;100565.28;5011382;28;20083;-80
2022/10/29 04:46:46;;;;;;;52.17;25.58;;;;;;;11.82;64.64;100637.03;5011443;28;20049;-80
2022/10/29 04:49:12;;;;;;;57.65;23.88;;;;;;;11.60;64.55;100571.44;5011599;28;20041;-80
2022/10/29 04:51:37;;;;;;;51.95;24.45;;;;;;;11.73;64.77;100601.75;5011421;28;20075;-80
2022/10/29 04:54:03;;;;;;;47.53;23.10;;;;;;;11.74;64.40;100618.44;5015329;28;20414;-80
2022/10/29 04:56:29;;;;;;;55.47;23.02;;;;;;;11.99;64.87;100685.59;5015551;28;20625;-80
2022/10/29 04:58:55;;;;;;;44.50;22.08;;;;;;;10.92;65.09;100503.50;5015405;28;20033;-80
2022/10/29 05:01:20;;;;;;;64.70;25.33;;;;;;;11.66;64.61;100634.28;5015650;28;20036;-80
2022/10/29 05:03:46;;;;;;;62.80;26.67;;;;;;;11.87;65.16;100671.78;5014174;28;20430;-80
2022/10/29 05:06:11;;;;;;;58.85;26.55;;;;;;;11.43;65.08;100605.75;5015341;28;20030;-80
2022/10/29 05:08:37;;;;;;;57.55;26.48;;;;;;;11.49;65.50;100614.03;5015221;28;20049;-80
2022/10/29 05:11:03;;;;;;;51.50;24.80;;;;;;;11.72;65.31;100668.88;5015271;28;20033;-80
2022/10/29 05:13:29;;;;;;;43.80;22.75;;;;;;;11.77;64.87;100644.59;5015142;28;20461;-80
2022/10/29 05:15:55;;;;;;;54.28;25.98;;;;;;;11.35;64.99;100604.88;5013949;28;20022;-80
2022/10/29 05:18:21;;;;;;;64.35;27.52;;;;;;;11.48;64.93;100601.81;5015192;28;20121;-80
2022/10/29 05:20:46;;;;;;;55.63;27.85;;;;;;;10.41;65.32;100431.25;5014881;28;20037;-80
2022/10/29 05:23:11;;;;;;;60.95;27.58;;;;;;;11.54;65.14;100630.25;5014899;28;20499;-80
2022/10/29 05:25:39;;;;;;;55.50;26.75;;;;;;;11.91;65.21;100689.03;5013619;28;20120;-80
2022/10/29 05:28:13;;;;;;;66.30;29.10;;;;;;;11.90;65.85;100695.31;5013867;28;20018;-80
2022/10/29 05:30:43;;;;;;;57.70;27.13;;;;;;;11.62;65.46;100673.44;5014957;28;20100;-80
2022/10/29 05:33:09;;;;;;;52.67;26.55;;;;;;;11.91;65.15;100704.91;5013632;28;20054;-80
2022/10/29 05:35:35;;;;;;;67.50;27.80;;;;;;;11.46;65.28;100646.91;5013372;28;20026;-80
2022/10/29 05:38:01;;;;;;;58.17;28.00;;;;;;;11.14;65.43;100598.13;5014802;28;20037;-80
2022/10/29 05:40:27;;;;;;;55.85;27.23;;;;;;;11.88;65.03;100726.38;5013424;28;20392;-80
2022/10/29 05:42:52;;;;;;;55.38;27.05;;;;;;;11.52;65.09;100643.66;5014718;28;20577;-80
2022/10/29 05:45:18;;;;;;;52.25;25.40;;;;;;;11.51;64.69;100634.06;5013273;28;20026;-80
2022/10/29 05:47:44;;;;;;;52.50;25.48;;;;;;;12.06;64.77;100721.03;5014672;28;20030;-80
2022/10/29 05:50:11;;;;;;;52.15;25.35;;;;;;;11.80;64.72;100670.75;5013230;28;20029;-80
2022/10/29 05:52:36;;;;;;;61.88;26.52;;;;;;;11.71;64.58;100658.44;5013260;28;20049;-80
2022/10/29 05:55:02;;;;;;;68.05;27.85;;;;;;;11.70;65.22;100638.28;5014662;28;20502;-80
2022/10/29 05:57:28;;;;;;;63.08;28.05;;;;;;;11.69;65.15;100637.44;5014554;28;20105;-80
2022/10/29 05:59:53;;;;;;;133.95;33.92;;;;;;;11.86;64.72;100666.66;5014475;28;20069;-80
2022/10/29 06:02:19;;;;;;;69.45;28.52;;;;;;;12.19;65.47;100710.00;5014209;28;20476;-80
2022/10/29 06:04:44;;;;;;;72.78;30.00;;;;;;;11.99;65.73;100702.31;5014227;28;20056;-80
2022/10/29 06:07:09;;;;;;;62.78;29.17;;;;;;;11.37;65.98;100595.81;5014193;28;20542;-80
2022/10/29 06:09:35;;;;;;;67.35;27.75;;;;;;;11.76;65.50;100653.50;5014251;28;20037;-80
2022/10/29 06:12:00;;;;;;;66.43;28.85;;;;;;;11.58;66.32;100623.66;5012845;28;20025;-80
2022/10/29 06:14:27;;;;;;;62.50;28.38;;;;;;;11.67;66.35;100625.38;5012899;28;20061;-80
2022/10/29 06:16:52;;;;;;;72.60;28.30;;;;;;;11.81;66.09;100661.00;5013971;28;20422;-80
2022/10/29 06:19:18;;;;;;;64.28;29.30;;;;;;;11.72;65.97;100617.78;5014163;28;20033;-79
2022/10/29 06:21:43;;;;;;;61.42;29.10;;;;;;;12.04;66.96;100670.06;5012650;28;20026;-79
2022/10/29 06:24:09;;;;;;;62.63;28.75;;;;;;;12.13;66.70;100692.09;5014116;28;20513;-79
2022/10/29 06:26:36;;;;;;;60.78;27.20;;;;;;;12.35;66.88;100713.53;5014181;28;20491;-80
2022/10/29 06:29:02;;;;;;;54.95;27.25;;;;;;;11.65;66.47;100588.50;5014293;28;20034;-79
2022/10/29 06:31:27;;;;;;;60.10;26.83;;;;;;;12.29;66.75;100681.56;5013825;28;20594;-79
2022/10/29 06:33:54;;;;;;;67.32;28.10;;;;;;;10.86;66.73;100490.09;5013819;28;20088;-79
2022/10/29 06:36:19;;;;;;;56.83;27.67;;;;;;;11.88;67.22;100624.97;5013776;28;20030;-79
2022/10/29 06:38:44;;;;;;;61.05;28.35;;;;;;;12.39;67.30;100671.66;5013994;28;20032;-79
2022/10/29 06:41:10;;;;;;;56.78;26.58;;;;;;;12.73;66.93;100740.47;5013756;28;20026;-81
2022/10/29 06:43:35;;;;;;;59.40;28.15;;;;;;;12.99;66.82;100737.69;5012382;28;20112;-80
2022/10/29 06:46:01;;;;;;;58.90;26.90;;;;;;;12.68;66.77;100695.91;5013733;28;20037;-80
2022/10/29 06:48:26;;;;;;;53.67;25.27;;;;;;;12.42;66.39;100639.53;5013471;28;20084;-80
2022/10/29 06:50:52;;;;;;;55.97;27.05;;;;;;;12.71;66.72;100713.31;5013344;28;20022;-80
2022/10/29 06:53:18;;;;;;;58.28;26.75;;;;;;;13.18;66.75;100724.13;5013319;28;20034;-80
2022/10/29 06:55:43;;;;;;;44.20;22.92;;;;;;;13.10;66.33;100708.19;5013076;28;20060;-80
2022/10/29 06:58:14;;;;;;;53.50;25.73;;;;;;;13.14;66.13;100727.25;5013428;28;20487;-80
2022/10/29 07:00:41;;;;;;;46.28;25.52;;;;;;;13.16;66.51;100728.75;5013089;28;20030;-80
2022/10/29 07:03:07;;;;;;;53.35;25.63;;;;;;;12.64;66.25;100625.69;5013233;28;20032;-80
2022/10/29 07:05:34;;;;;;;44.38;23.70;;;;;;;12.62;66.12;100632.13;5013257;28;20096;-80
2022/10/29 07:08:00;;;;;;;46.80;26.30;;;;;;;12.68;66.27;100613.78;5012890;28;20064;-80
2022/10/29 07:10:28;;;;;;;41.38;24.15;;;;;;;13.38;66.03;100732.63;5011634;28;20037;-80
2022/10/29 07:12:54;;;;;;;41.90;22.98;;;;;;;13.19;66.06;100695.81;5012905;28;20025;-80
2022/10/29 07:15:20;;;;;;;37.50;21.67;;;;;;;13.35;66.24;100720.47;5012336;28;20088;-80
2022/10/29 07:18:02;;;;;;;34.80;22.88;;;;;;;13.47;66.17;100730.78;5012953;28;20033;-79
2022/10/29 07:20:31;;;;;;;44.35;23.75;;;;;;;13.42;65.86;100741.06;5013055;28;20033;-80
2022/10/29 07:22:58;;;;;;;36.80;23.48;;;;;;;13.60;65.97;100725.78;5012771;28;20029;-79
2022/10/29 07:25:24;;;;;;;34.50;20.20;;;;;;;13.66;65.49;100744.50;5012835;28;20462;-79
2022/10/29 07:27:49;;;;;;;38.45;21.25;;;;;;;13.07;65.02;100604.31;5012804;28;20037;-79
2022/10/29 07:30:15;;;;;;;31.38;20.90;;;;;;;13.34;64.80;100636.59;5011326;28;20091;-80
2022/10/29 07:32:41;;;;;;;36.60;22.65;;;;;;;13.14;64.64;100582.25;5011409;28;20032;-80
2022/10/29 07:35:06;;;;;;;34.85;21.80;;;;;;;14.00;64.35;100725.69;5012504;28;20022;-79
2022/10/29 07:37:32;;;;;;;36.63;24.58;;;;;;;13.94;63.96;100698.97;5012679;28;20076;-80
2022/10/29 07:39:57;;;;;;;32.80;21.98;;;;;;;13.74;63.91;100649.94;5011158;28;20026;-80
2022/10/29 07:42:23;;;;;;;31.77;20.92;;;;;;;13.86;63.90;100665.31;5012176;28;20030;-79
2022/10/29 07:44:48;;;;;;;40.20;22.33;;;;;;;13.91;63.56;100665.63;5010960;28;20022;-79
2022/10/29 07:47:14;;;;;;;35.90;22.13;;;;;;;14.32;63.46;100721.25;5012130;28;20026;-80
2022/10/29 07:49:39;;;;;;;37.65;23.20;;;;;;;14.23;63.26;100693.06;5011053;28;20384;-79
2022/10/29 07:52:04;;;;;;;32.97;20.77;;;;;;;14.22;63.03;100699.38;5012309;28;20028;-79
2022/10/29 07:54:30;;;;;;;29.70;21.38;;;;;;;14.28;62.62;100669.47;5011960;28;20418;-80
2022/10/29 07:56:55;;;;;;;27.83;19.55;;;;;;;14.73;62.27;100721.06;5012325;28;20029;-80
2022/10/29 07:59:21;;;;;;;33.88;19.77;;;;;;;13.47;61.69;100500.78;5012228;28;20022;-80
2022/10/29 08:01:46;;;;;;;18.85;14.30;;;;;;;14.48;60.08;100676.03;5012310;28;20122;-80
2022/10/29 08:04:12;;;;;;;18.35;12.18;;;;;;;14.85;59.89;100730.28;5011897;28;20033;-79
2022/10/29 08:06:38;;;;;;;21.38;14.32;;;;;;;14.77;59.07;100725.84;5011914;28;20099;-80
2022/10/29 08:09:04;;;;;;;25.63;15.85;;;;;;;14.86;58.75;100718.63;5012350;28;20565;-79
2022/10/29 08:11:33;;;;;;;21.25;14.30;;;;;;;14.58;58.58;100667.81;5011171;28;20113;-80
2022/10/29 08:13:58;;;;;;;22.83;14.18;;;;;;;14.94;57.88;100715.94;5012939;28;20473;-80
2022/10/29 08:16:24;;;;;;;21.20;14.57;;;;;;;14.69;57.74;100669.25;5012086;28;20034;-80
2022/10/29 08:18:50;;;;;;;24.42;16.40;;;;;;;14.78;57.50;100654.88;5011729;28;20036;-79
2022/10/29 08:21:16;;;;;;;21.52;15.55;;;;;;;14.77;57.25;100653.22;5011490;28;20036;-80
2022/10/29 08:23:42;;;;;;;18.38;11.43;;;;;;;14.52;56.21;100648.09;5011846;28;20088;-80
2022/10/29 08:26:07;;;;;;;15.52;10.18;;;;;;;14.93;55.74;100679.72;5011786;28;20469;-80
2022/10/29 08:28:33;;;;;;;13.25;9.15;;;;;;;14.62;54.99;100606.16;5010976;28;20029;-80
2022/10/29 08:30:58;;;;;;;15.60;10.55;;;;;;;14.70;54.23;100597.28;5011732;28;20032;-80
2022/10/29 08:33:23;;;;;;;16.88;14.63;;;;;;;14.27;54.14;100514.56;5011951;28;20025;-80
2022/10/29 08:35:49;;;;;;;14.75;9.68;;;;;;;15.52;53.99;100715.28;5011757;28;20422;-79
2022/10/29 08:38:14;;;;;;;12.85;9.57;;;;;;;14.60;53.22;100535.59;5010713;28;20079;-80
2022/10/29 08:40:57;;;;;;;20.42;10.38;;;;;;;15.30;52.76;100631.00;5011604;28;20057;-80
2022/10/29 08:43:46;;;;;;;17.33;9.20;;;;;;;15.81;52.73;100682.56;5011792;28;20026;-80
2022/10/29 08:46:20;;;;;;;14.38;10.05;;;;;;;15.52;52.44;100623.94;5011246;28;20510;-80
2022/10/29 08:48:53;;;;;;;15.70;10.18;;;;;;;16.10;52.33;100680.91;5010200;28;20034;-79
2022/10/29 08:51:39;;;;;;;12.63;10.00;;;;;;;16.04;50.73;100678.97;5011472;28;20033;-80
2022/10/29 08:54:12;;;;;;;17.35;10.90;;;;;;;16.22;50.65;100690.06;5010181;28;20053;-80
2022/10/29 08:56:43;;;;;;;13.38;10.35;;;;;;;16.29;50.91;100690.13;5011512;28;20037;-80
2022/10/29 08:59:20;;;;;;;16.25;10.48;;;;;;;16.37;50.62;100682.88;5011366;28;20030;-80
2022/10/29 09:01:46;;;;;;;18.02;11.90;;;;;;;16.38;50.18;100670.38;5011280;28;20029;-80
2022/10/29 09:04:22;;;;;;;13.98;10.00;;;;;;;16.38;49.66;100681.03;5011288;28;20087;-80
2022/10/29 09:07:15;;;;;;;16.05;10.27;;;;;;;16.44;48.73;100675.78;5011125;28;20052;-80
2022/10/29 09:09:57;;;;;;;17.33;11.55;;;;;;;16.02;49.54;100601.91;5011433;28;20026;-81
2022/10/29 09:12:26;;;;;;;;;;;;;;;16.48;49.03;100671.72;5011727;28;20088;-80
2022/10/29 09:15:09;;;;;;;16.25;10.73;;;;;;;16.68;49.05;100677.28;5011201;28;20382;-80
2022/10/29 09:18:03;;;;;;;17.48;10.43;;;;;;;16.75;47.95;100653.34;5011226;28;20022;-80
2022/10/29 09:20:32;;;;;;;22.77;10.35;;;;;;;16.85;48.36;100664.53;5010236;28;20080;-79
2022/10/29 09:23:04;;;;;;;16.40;11.07;;;;;;;16.98;48.23;100656.66;5009898;28;20461;-80
2022/10/29 09:25:40;;;;;;;14.82;9.52;;;;;;;17.07;47.66;100654.66;5011030;28;20069;-79
2022/10/29 09:28:26;;;;;;;19.92;12.05;;;;;;;15.73;47.22;100429.72;5011095;28;20494;-80
2022/10/29 09:31:03;;;;;;;15.77;9.48;;;;;;;16.81;47.51;100585.91;5009797;28;20076;-80
2022/10/29 09:33:30;;;;;;;14.88;9.88;;;;;;;16.60;47.16;100514.75;5011213;28;20068;-79
2022/10/29 09:35:58;;;;;;;17.50;10.23;;;;;;;16.86;46.94;100548.81;5009820;28;20022;-80
2022/10/29 09:38:43;;;;;;;24.52;11.57;;;;;;;17.38;46.29;100625.75;5010551;28;20026;-80
2022/10/29 09:41:10;;;;;;;18.13;10.18;;;;;;;17.21;46.25;100587.06;5014261;28;20411;-80
2022/10/29 09:43:44;;;;;;;15.13;9.45;;;;;;;17.67;46.26;100635.41;5014478;28;20410;-80
2022/10/29 09:46:28;;;;;;;14.05;9.50;;;;;;;17.77;45.74;100633.19;5013222;28;20570;-79
2022/10/29 09:49:21;;;;;;;17.33;10.05;;;;;;;17.84;45.35;100621.75;5013232;28;20410;-80
2022/10/29 09:51:55;;;;;;;18.20;10.32;;;;;;;17.92;45.55;100624.25;5014448;28;20092;-79
2022/10/29 09:54:24;;;;;;;16.50;9.85;;;;;;;17.50;45.25;100537.91;5013129;28;20050;-80
2022/10/29 09:56:50;;;;;;;18.83;10.25;;;;;;;17.72;44.99;100568.84;5014266;28;20037;-80
2022/10/29 09:59:21;;;;;;;13.77;9.15;;;;;;;18.19;44.94;100612.63;5012951;28;20030;-80
2022/10/29 10:01:47;;;;;;;18.23;10.23;;;;;;;17.55;44.68;100479.41;5013043;28;20026;-80
2022/10/29 10:04:39;;;;;;;14.75;9.48;;;;;;;18.40;44.15;100609.78;5013006;28;20036;-80
2022/10/29 10:07:10;;;;;;;15.02;9.13;;;;;;;18.50;43.96;100600.53;5014097;28;20049;-80
2022/10/29 10:09:56;;;;;;;19.98;9.57;;;;;;;18.55;43.08;100590.06;5014334;28;20049;-80
2022/10/29 10:12:27;;;;;;;14.88;9.30;;;;;;;18.31;44.06;100535.31;5014193;28;20173;-79
2022/10/29 10:15:02;;;;;;;16.88;9.13;;;;;;;18.75;43.80;100582.94;5012551;28;20026;-80
2022/10/29 10:17:27;;;;;;;13.82;8.50;;;;;;;18.46;43.62;100521.75;5013900;28;20021;-80
2022/10/29 10:19:52;;;;;;;12.93;7.38;;;;;;;18.23;43.10;100460.66;5012769;28;20517;-80
2022/10/29 10:22:21;;;;;;;13.93;8.52;;;;;;;18.98;42.87;100566.44;5012589;28;20095;-80
2022/10/29 10:24:47;;;;;;;11.00;7.30;;;;;;;18.66;42.62;100511.94;5013892;28;20083;-79
2022/10/29 10:27:18;;;;;;;14.65;8.50;;;;;;;19.09;42.61;100559.63;5013777;28;20108;-79
2022/10/29 10:30:03;;;;;;;12.07;7.57;;;;;;;19.16;42.55;100563.13;5014093;28;20022;-80
2022/10/29 10:32:29;;;;;;;11.32;6.55;;;;;;;18.62;42.39;100446.50;5013648;28;20152;-80
2022/10/29 10:34:55;;;;;;;10.18;7.47;;;;;;;18.54;42.08;100450.16;5013614;28;20544;-80
2022/10/29 10:37:21;;;;;;;14.02;7.65;;;;;;;18.98;41.79;100476.25;5013616;28;20026;-80
2022/10/29 10:40:04;;;;;;;10.20;6.93;;;;;;;19.04;41.22;100494.16;5013781;28;20022;-80
2022/10/29 10:42:35;;;;;;;10.48;6.32;;;;;;;19.40;41.54;100540.22;5013476;28;20422;-80
2022/10/29 10:45:11;;;;;;;9.30;6.18;;;;;;;19.46;41.56;100534.00;5013378;28;20018;-79
2022/10/29 10:47:45;;;;;;;9.13;6.05;;;;;;;18.87;41.38;100415.38;5013487;28;20030;-78
2022/10/29 10:50:29;;;;;;;8.05;5.63;;;;;;;19.63;41.17;100521.81;5012402;28;20021;-79
2022/10/29 10:53:00;;;;;;;9.52;5.55;;;;;;;19.20;40.96;100446.53;5012991;28;20036;-80
2022/10/29 10:55:38;;;;;;;9.68;6.07;;;;;;;19.24;40.13;100451.25;5013348;28;20018;-79
2022/10/29 10:58:28;;;;;;;7.32;5.18;;;;;;;18.97;40.56;100394.34;5013197;28;20022;-79
2022/10/29 11:00:58;;;;;;;8.13;4.88;;;;;;;19.67;40.66;100501.59;5013147;28;20022;-79
2022/10/29 11:03:29;;;;;;;9.43;6.45;;;;;;;19.05;40.88;100414.69;5013070;28;20056;-80
2022/10/29 11:06:03;;;;;;;8.47;6.00;;;;;;;19.66;40.80;100500.78;5012808;28;20028;-80
2022/10/29 11:08:37;;;;;;;7.82;5.10;;;;;;;19.05;40.48;100415.50;5012660;28;20657;-80
2022/10/29 11:11:07;;;;;;;8.57;5.25;;;;;;;19.59;40.49;100488.44;5012921;28;20562;-80
2022/10/29 11:13:33;;;;;;;10.00;7.55;;;;;;;18.97;40.63;100405.03;5013065;28;20101;-80
2022/10/29 11:16:01;;;;;;;10.55;7.55;;;;;;;19.54;40.72;100490.94;5013385;28;20111;-80
2022/10/29 11:18:37;;;;;;;28.65;22.38;;;;;;;19.40;40.98;100460.69;5011924;28;20054;-79
2022/10/29 11:21:16;;;;;;;10.13;8.35;;;;;;;19.49;40.18;100462.09;5013545;28;20017;-79
2022/10/29 11:23:55;;;;;;;9.75;8.05;;;;;;;19.26;40.76;100467.94;5013417;28;20026;-80